Time;durP1;ratioP1;P1;durP2;ratioP2;P2;SDS_P1;SDS_P2;PMS_P1;PMS_P2;Temp;Humidity;BMP_temperature;BMP_pressure;BME280_temperature;BME280_humidity;BME280_pressure;Samples;Min_cycle;Max_cycle;Signal;HPM_P1;HPM_P2
2021/09/07 00:01:09;;;;;;;12.40;10.60;;;;;;;17.63;69.75;101628.22;5053165;28;20038;-52
2021/09/07 00:03:35;;;;;;;12.02;9.95;;;;;;;17.63;70.01;101630.88;5069613;28;20401;-54
2021/09/07 00:06:01;;;;;;;11.60;10.23;;;;;;;17.63;69.71;101628.22;5073171;28;20020;-51
2021/09/07 00:08:27;;;;;;;12.95;10.20;;;;;;;17.62;69.89;101621.13;5069933;28;20025;-51
2021/09/07 00:10:52;;;;;;;10.75;9.48;;;;;;;17.61;69.78;101617.59;5070093;28;21470;-51
2021/09/07 00:13:18;;;;;;;11.73;10.43;;;;;;;17.62;69.97;101630.03;5070380;28;20394;-52
2021/09/07 00:15:44;;;;;;;11.32;10.02;;;;;;;17.62;69.96;101618.47;5069993;28;20028;-52
2021/09/07 00:18:10;;;;;;;13.73;10.50;;;;;;;17.62;69.85;101615.81;5056733;28;20410;-51
2021/09/07 00:20:36;;;;;;;13.77;10.27;;;;;;;17.62;70.09;101610.47;5071228;28;20051;-50
2021/09/07 00:23:02;;;;;;;12.15;9.82;;;;;;;17.61;69.91;101606.91;5069123;28;20021;-54
2021/09/07 00:25:28;;;;;;;12.50;9.40;;;;;;;17.60;69.95;101599.84;5052869;28;20410;-52
2021/09/07 00:27:54;;;;;;;12.18;10.80;;;;;;;17.61;69.94;101603.38;5037248;28;20413;-52
2021/09/07 00:30:20;;;;;;;13.27;9.90;;;;;;;17.60;69.73;101597.16;5071911;28;20149;-51
2021/09/07 00:32:45;;;;;;;12.23;9.70;;;;;;;17.60;69.86;101598.97;5069958;28;20027;-51
2021/09/07 00:35:12;;;;;;;12.13;10.15;;;;;;;17.61;69.87;101598.06;5054588;28;20107;-51
2021/09/07 00:37:41;;;;;;;13.18;10.60;;;;;;;17.60;69.96;101601.66;5052900;28;20028;-51
2021/09/07 00:40:08;;;;;;;13.80;10.10;;;;;;;17.60;69.93;101599.84;5052668;28;20064;-51
2021/09/07 00:42:36;;;;;;;12.70;10.38;;;;;;;17.60;69.96;101590.97;5071075;28;20051;-51
2021/09/07 00:45:03;;;;;;;13.60;10.57;;;;;;;17.59;70.12;101583.88;5070715;28;20478;-51
2021/09/07 00:47:29;;;;;;;12.02;10.15;;;;;;;17.59;69.79;101583.88;5069623;28;20040;-51
2021/09/07 00:49:55;;;;;;;11.75;9.73;;;;;;;17.58;70.04;101580.34;5068815;28;20020;-52
2021/09/07 00:52:21;;;;;;;11.68;9.73;;;;;;;17.57;70.00;101581.22;5068781;28;20044;-51
2021/09/07 00:54:48;;;;;;;12.68;10.68;;;;;;;17.60;69.82;101574.97;5055090;28;20400;-52
2021/09/07 00:57:15;;;;;;;12.50;9.98;;;;;;;17.59;70.04;101578.53;5055795;28;20078;-52
2021/09/07 00:59:41;;;;;;;12.00;9.93;;;;;;;17.59;70.04;101589.19;5072618;28;20043;-51
2021/09/07 01:02:07;;;;;;;12.50;10.05;;;;;;;17.57;69.98;101583.91;5067270;28;20413;-50
2021/09/07 01:04:34;;;;;;;9.90;8.77;;;;;;;17.57;69.82;101592.78;5069655;28;20031;-51
2021/09/07 01:07:01;;;;;;;11.65;10.05;;;;;;;17.57;70.03;101592.78;5072459;28;20428;-50
2021/09/07 01:09:27;;;;;;;13.02;10.45;;;;;;;17.57;70.08;101581.22;5052640;28;20027;-52
2021/09/07 01:11:53;;;;;;;11.82;9.85;;;;;;;17.57;70.05;101578.56;5072674;28;20402;-51
2021/09/07 01:14:27;;;;;;;11.23;9.85;;;;;;;17.55;70.07;101575.94;5074891;28;20020;-51
2021/09/07 01:16:52;;;;;;;10.40;8.95;;;;;;;17.56;70.12;101574.16;5073354;28;20019;-52
2021/09/07 01:19:18;;;;;;;10.98;9.80;;;;;;;17.57;70.06;101581.22;5071280;28;20028;-51
2021/09/07 01:21:44;;;;;;;11.57;9.65;;;;;;;17.55;70.10;101581.25;5073941;28;20480;-51
2021/09/07 01:24:10;;;;;;;11.77;10.27;;;;;;;17.56;70.05;101585.72;5076829;28;20416;-51
2021/09/07 01:26:35;;;;;;;11.07;9.30;;;;;;;17.56;70.26;101592.81;5073453;28;20024;-51
2021/09/07 01:29:01;;;;;;;11.55;9.45;;;;;;;17.54;70.29;101582.19;5074751;28;20478;-51
2021/09/07 01:31:27;;;;;;;10.85;9.15;;;;;;;17.55;70.14;101589.25;5073942;28;20036;-51
2021/09/07 01:33:53;;;;;;;11.25;9.30;;;;;;;17.54;70.15;101587.53;5072958;28;20028;-51
2021/09/07 01:36:19;;;;;;;10.65;9.23;;;;;;;17.56;70.26;101584.81;5075840;28;20023;-50
2021/09/07 01:38:45;;;;;;;12.02;9.85;;;;;;;17.53;70.31;101583.09;5072176;28;20473;-51
2021/09/07 01:41:10;;;;;;;13.07;9.68;;;;;;;17.51;70.18;101579.59;5058377;28;20474;-51
2021/09/07 01:43:36;;;;;;;11.23;9.55;;;;;;;17.53;70.17;101584.88;5075454;28;20474;-51
2021/09/07 01:46:02;;;;;;;10.00;8.88;;;;;;;17.53;70.06;101584.88;5056633;28;20037;-51
2021/09/07 01:48:28;;;;;;;12.65;9.95;;;;;;;17.54;70.14;101592.00;5072606;28;20448;-51
2021/09/07 01:50:54;;;;;;;10.23;8.88;;;;;;;17.54;70.12;101587.53;5073238;28;20028;-52
2021/09/07 01:53:20;;;;;;;11.70;9.90;;;;;;;17.51;70.26;101592.91;5072576;28;20115;-51
2021/09/07 01:55:46;;;;;;;11.82;10.10;;;;;;;17.52;70.49;101597.38;5068788;28;20677;-52
2021/09/07 01:58:11;;;;;;;10.88;9.45;;;;;;;17.52;70.11;101597.38;5073995;28;20104;-51
2021/09/07 02:00:37;;;;;;;11.50;9.52;;;;;;;17.52;70.06;101604.47;5075478;28;20082;-51
2021/09/07 02:03:03;;;;;;;11.15;9.30;;;;;;;17.51;70.04;101603.59;5072674;28;20414;-51
2021/09/07 02:05:29;;;;;;;10.30;9.25;;;;;;;17.50;70.02;101604.50;5039119;28;20046;-51
2021/09/07 02:07:55;;;;;;;10.80;8.70;;;;;;;17.51;70.08;101606.25;5072686;28;20474;-52
2021/09/07 02:10:21;;;;;;;10.43;9.43;;;;;;;17.50;70.08;101612.50;5075396;28;20028;-51
2021/09/07 02:12:47;;;;;;;12.02;9.32;;;;;;;17.51;69.92;101605.41;5058785;28;20044;-52
2021/09/07 02:15:14;;;;;;;11.55;9.32;;;;;;;17.49;70.15;101605.44;5077721;28;20382;-51
2021/09/07 02:17:40;;;;;;;9.63;8.73;;;;;;;17.49;70.38;101600.09;5072358;28;20028;-51
2021/09/07 02:20:07;;;;;;;11.07;9.32;;;;;;;17.48;70.27;101606.34;5072330;28;20021;-52
2021/09/07 02:22:33;;;;;;;11.77;9.85;;;;;;;17.49;70.32;101605.44;5074460;28;20028;-50
2021/09/07 02:24:58;;;;;;;10.90;8.82;;;;;;;17.49;70.21;101607.22;5057525;28;20478;-52
2021/09/07 02:27:24;;;;;;;11.13;9.15;;;;;;;17.48;70.21;101602.78;5073933;28;20029;-51
2021/09/07 02:29:50;;;;;;;11.70;9.13;;;;;;;17.47;70.24;101595.72;5074464;28;20394;-51
2021/09/07 02:32:16;;;;;;;10.73;8.95;;;;;;;17.47;70.29;101599.25;5077364;28;20028;-51
2021/09/07 02:34:42;;;;;;;9.45;8.43;;;;;;;17.48;70.25;101592.13;5071825;28;20513;-52
2021/09/07 02:37:07;;;;;;;10.40;9.00;;;;;;;17.47;70.12;101593.91;5072351;28;20116;-51
2021/09/07 02:39:33;;;;;;;11.10;8.95;;;;;;;17.46;70.40;101589.50;5073846;28;20024;-51
2021/09/07 02:41:59;;;;;;;10.05;8.88;;;;;;;17.45;70.08;101582.41;5073497;28;20437;-50
2021/09/07 02:44:25;;;;;;;11.45;9.38;;;;;;;17.43;70.12;101581.56;5059143;28;20058;-52
2021/09/07 02:46:51;;;;;;;11.10;9.27;;;;;;;17.45;70.37;101587.75;5071356;28;20028;-50
2021/09/07 02:49:17;;;;;;;11.20;9.23;;;;;;;17.43;70.19;101579.78;5071496;28;20047;-52
2021/09/07 02:51:43;;;;;;;10.95;8.57;;;;;;;17.44;70.37;101575.34;5074713;28;20035;-50
2021/09/07 02:54:10;;;;;;;10.35;9.25;;;;;;;17.43;70.30;101570.91;5072249;28;20021;-51
2021/09/07 02:56:36;;;;;;;10.95;8.80;;;;;;;17.43;70.22;101574.44;5071367;28;20071;-52
2021/09/07 02:59:02;;;;;;;10.10;9.10;;;;;;;17.44;70.22;101570.00;5071097;28;20074;-51
2021/09/07 03:01:28;;;;;;;11.05;9.07;;;;;;;17.43;70.33;101573.56;5073930;28;20036;-53
2021/09/07 03:03:54;;;;;;;11.68;9.75;;;;;;;17.43;70.43;101574.44;5070883;28;20032;-51
2021/09/07 03:06:20;;;;;;;12.23;9.70;;;;;;;17.43;70.04;101573.56;5073847;28;20036;-51
2021/09/07 03:08:46;;;;;;;10.60;8.88;;;;;;;17.43;70.14;101568.22;5072377;28;20394;-50
2021/09/07 03:11:12;;;;;;;12.05;8.82;;;;;;;17.42;70.34;101567.38;5070349;28;20039;-51
2021/09/07 03:13:38;;;;;;;9.68;8.73;;;;;;;17.42;70.17;101563.81;5073441;28;20090;-52
2021/09/07 03:16:04;;;;;;;9.60;8.25;;;;;;;17.41;70.22;101562.94;5071332;28;20032;-51
2021/09/07 03:18:30;;;;;;;9.20;8.18;;;;;;;17.41;70.32;101564.75;5072103;28;20474;-50
2021/09/07 03:20:56;;;;;;;12.30;9.00;;;;;;;17.40;70.30;101560.28;5070997;28;20058;-52
2021/09/07 03:23:22;;;;;;;9.40;8.10;;;;;;;17.39;70.35;101562.09;5071087;28;20066;-51
2021/09/07 03:25:47;;;;;;;9.93;8.88;;;;;;;17.40;70.39;101563.84;5071625;28;20032;-52
2021/09/07 03:28:14;;;;;;;10.98;8.50;;;;;;;17.41;70.34;101565.59;5070549;28;20032;-52
2021/09/07 03:30:39;;;;;;;9.32;8.10;;;;;;;17.39;70.10;101567.44;5070919;28;20055;-51
2021/09/07 03:33:05;;;;;;;10.45;8.70;;;;;;;17.40;70.16;101573.63;5056603;28;20632;-51
2021/09/07 03:35:31;;;;;;;9.73;8.27;;;;;;;17.39;70.46;101574.56;5070130;28;20033;-51
2021/09/07 03:37:57;;;;;;;12.40;8.55;;;;;;;17.40;70.48;101576.28;5055012;28;20029;-51
2021/09/07 03:40:23;;;;;;;10.85;8.88;;;;;;;17.38;70.38;101580.81;5071390;28;20465;-54
2021/09/07 03:42:49;;;;;;;11.10;9.20;;;;;;;17.39;70.18;101574.56;5074782;28;20071;-51
2021/09/07 03:45:15;;;;;;;10.63;8.73;;;;;;;17.38;70.48;101575.47;5055239;28;20394;-51
2021/09/07 03:47:42;;;;;;;8.82;7.93;;;;;;;17.38;70.46;101571.03;5055116;28;20058;-51
2021/09/07 03:50:08;;;;;;;10.00;8.25;;;;;;;17.36;70.16;101572.84;5069058;28;20024;-56
2021/09/07 03:52:34;;;;;;;9.50;8.50;;;;;;;17.37;70.42;101579.06;5070054;28;20032;-52
2021/09/07 03:55:00;;;;;;;10.07;8.32;;;;;;;17.35;70.54;101575.53;5070310;28;20053;-51
2021/09/07 03:57:27;;;;;;;10.70;8.50;;;;;;;17.37;70.36;101574.59;5065602;28;20115;-52
2021/09/07 03:59:53;;;;;;;10.40;7.90;;;;;;;17.36;70.39;101571.94;5053576;28;20113;-51
2021/09/07 04:02:19;;;;;;;9.07;8.02;;;;;;;17.36;70.45;101574.63;5068539;28;20055;-51
2021/09/07 04:04:45;;;;;;;9.73;7.85;;;;;;;17.35;70.53;101572.88;5063428;28;20032;-52
2021/09/07 04:07:11;;;;;;;10.93;9.00;;;;;;;17.35;70.45;101575.53;5053964;28;20506;-51
2021/09/07 04:09:37;;;;;;;12.70;9.05;;;;;;;17.34;70.34;101579.97;5069949;28;20024;-53
2021/09/07 04:12:04;;;;;;;9.95;8.45;;;;;;;17.35;70.35;101587.09;5069714;28;20098;-51
2021/09/07 04:14:30;;;;;;;10.45;7.75;;;;;;;17.34;70.51;101587.13;5067983;28;20030;-52
2021/09/07 04:16:55;;;;;;;9.73;7.95;;;;;;;17.31;70.49;101586.28;5069165;28;20036;-54
2021/09/07 04:19:21;;;;;;;10.68;8.52;;;;;;;17.33;70.35;101586.22;5052681;28;20470;-51
2021/09/07 04:21:47;;;;;;;9.27;8.30;;;;;;;17.34;70.47;101587.13;5036365;28;20024;-51
2021/09/07 04:24:13;;;;;;;9.98;8.32;;;;;;;17.33;70.53;101590.72;5068930;28;20039;-52
2021/09/07 04:26:38;;;;;;;10.02;8.48;;;;;;;17.33;70.50;101588.91;5069080;28;20020;-51
2021/09/07 04:29:04;;;;;;;9.57;8.10;;;;;;;17.31;70.49;101586.28;5053112;28;20533;-51
2021/09/07 04:31:31;;;;;;;9.40;8.45;;;;;;;17.33;70.26;101588.03;5070373;28;20086;-53
2021/09/07 04:33:57;;;;;;;10.57;7.97;;;;;;;17.30;70.38;101592.53;5069418;28;20025;-51
2021/09/07 04:36:23;;;;;;;9.57;8.63;;;;;;;17.30;70.42;101589.84;5069770;28;20094;-52
2021/09/07 04:38:49;;;;;;;10.50;8.27;;;;;;;17.29;70.54;101598.78;5070031;28;20490;-51
2021/09/07 04:41:15;;;;;;;11.80;9.50;;;;;;;17.30;70.47;101605.84;5068384;28;20032;-52
2021/09/07 04:43:41;;;;;;;10.93;9.25;;;;;;;17.30;70.56;101597.84;5068926;28;20522;-51
2021/09/07 04:46:06;;;;;;;9.90;8.30;;;;;;;17.30;70.51;101610.28;5069245;28;20081;-51
2021/09/07 04:48:32;;;;;;;9.82;8.02;;;;;;;17.29;70.45;101613.88;5069648;28;20445;-51
2021/09/07 04:50:58;;;;;;;10.43;8.75;;;;;;;17.29;70.54;101611.22;5069828;28;20027;-51
2021/09/07 04:53:24;;;;;;;10.10;8.00;;;;;;;17.29;70.53;101621.88;5070033;28;20024;-51
2021/09/07 04:55:50;;;;;;;10.57;8.68;;;;;;;17.28;70.74;101617.47;5051122;28;20020;-52
2021/09/07 04:58:15;;;;;;;10.25;7.93;;;;;;;17.28;70.63;101612.13;5069808;28;20020;-51
2021/09/07 05:00:41;;;;;;;9.70;8.55;;;;;;;17.28;70.54;101620.13;5069869;28;20063;-52
2021/09/07 05:03:07;;;;;;;9.23;8.35;;;;;;;17.28;70.44;101628.13;5069894;28;20086;-50
2021/09/07 05:05:33;;;;;;;9.90;7.72;;;;;;;17.27;70.47;101626.38;5068635;28;20066;-53
2021/09/07 05:07:59;;;;;;;10.60;8.70;;;;;;;17.26;70.73;101628.16;5066813;28;20085;-51
2021/09/07 05:10:25;;;;;;;10.18;8.77;;;;;;;17.27;70.63;101631.72;5069559;28;20037;-50
2021/09/07 05:12:51;;;;;;;10.48;8.13;;;;;;;17.26;70.53;101633.50;5052595;28;20020;-51
2021/09/07 05:15:17;;;;;;;9.20;7.97;;;;;;;17.26;70.58;101630.81;5068850;28;20050;-51
2021/09/07 05:17:44;;;;;;;11.05;8.98;;;;;;;17.26;70.60;101624.59;5069889;28;20024;-51
2021/09/07 05:20:11;;;;;;;8.88;7.78;;;;;;;17.24;70.74;101616.63;5069179;28;20033;-52
2021/09/07 05:22:37;;;;;;;11.20;8.48;;;;;;;17.24;70.66;101616.63;5051525;28;20029;-51
2021/09/07 05:25:05;;;;;;;8.98;8.07;;;;;;;17.23;70.59;101619.34;5069280;28;20501;-53
2021/09/07 05:27:35;;;;;;;9.68;8.57;;;;;;;17.24;70.56;101632.63;5067264;28;20032;-51
2021/09/07 05:30:06;;;;;;;9.90;8.88;;;;;;;17.23;70.62;101625.56;5069882;28;20020;-51
2021/09/07 05:32:31;;;;;;;11.57;9.43;;;;;;;17.23;70.62;101630.00;5064781;28;20044;-50
2021/09/07 05:34:57;;;;;;;9.32;8.40;;;;;;;17.23;70.78;101630.88;5068900;28;20012;-52
2021/09/07 05:37:23;;;;;;;9.88;8.88;;;;;;;17.23;70.80;101640.66;5069305;28;20036;-51
2021/09/07 05:39:49;;;;;;;8.88;7.90;;;;;;;17.23;70.88;101644.22;5069531;28;20016;-53
2021/09/07 05:42:15;;;;;;;8.95;8.05;;;;;;;17.23;70.68;101646.88;5069326;28;20028;-51
2021/09/07 05:44:41;;;;;;;9.68;7.78;;;;;;;17.23;70.74;101644.22;5052262;28;20025;-51
2021/09/07 05:47:07;;;;;;;8.85;7.95;;;;;;;17.22;70.76;101637.13;5069071;28;20062;-53
2021/09/07 05:49:33;;;;;;;9.77;7.88;;;;;;;17.22;70.64;101653.13;5069557;28;20546;-54
2021/09/07 05:51:59;;;;;;;8.70;7.80;;;;;;;17.22;70.81;101655.81;5066596;28;20043;-53
2021/09/07 05:54:25;;;;;;;8.85;7.35;;;;;;;17.22;70.68;101649.56;5068975;28;20024;-52
2021/09/07 05:56:51;;;;;;;9.98;8.52;;;;;;;17.21;70.55;101648.72;5069023;28;20025;-52
2021/09/07 05:59:17;;;;;;;10.43;8.15;;;;;;;17.21;70.75;101647.84;5069518;28;20020;-50
2021/09/07 06:01:46;;;;;;;11.55;8.45;;;;;;;17.21;70.83;101647.84;5068799;28;20081;-52
2021/09/07 06:04:12;;;;;;;8.70;7.80;;;;;;;17.20;70.91;101641.59;5072442;28;20025;-52
2021/09/07 06:06:37;;;;;;;9.27;8.07;;;;;;;17.20;70.81;101641.59;5072104;28;20024;-51
2021/09/07 06:09:03;;;;;;;10.32;8.15;;;;;;;17.20;70.74;101641.59;5072822;28;20028;-51
2021/09/07 06:11:29;;;;;;;8.38;7.30;;;;;;;17.21;70.84;101631.84;5073023;28;20149;-51
2021/09/07 06:13:55;;;;;;;9.57;8.00;;;;;;;17.19;70.96;101642.53;5071752;28;20032;-51
2021/09/07 06:16:21;;;;;;;9.27;7.80;;;;;;;17.19;70.91;101650.53;5072849;28;20038;-51
2021/09/07 06:18:47;;;;;;;10.52;8.57;;;;;;;17.19;70.89;101655.84;5057550;28;20020;-51
2021/09/07 06:21:13;;;;;;;8.82;7.88;;;;;;;17.19;70.88;101661.19;5072290;28;20077;-51
2021/09/07 06:23:39;;;;;;;10.55;8.70;;;;;;;17.18;70.70;101659.44;5069875;28;20028;-51
2021/09/07 06:26:05;;;;;;;10.50;8.82;;;;;;;17.19;70.91;101666.53;5071944;28;20398;-51
2021/09/07 06:28:31;;;;;;;8.70;7.45;;;;;;;17.19;70.53;101661.19;5072271;28;20028;-51
2021/09/07 06:30:57;;;;;;;8.82;7.60;;;;;;;17.18;70.94;101659.44;5072480;28;20024;-52
2021/09/07 06:33:22;;;;;;;8.95;7.40;;;;;;;17.17;70.98;101663.00;5057303;28;20028;-50
2021/09/07 06:35:48;;;;;;;8.77;7.88;;;;;;;17.18;70.79;101656.78;5070812;28;20106;-51
2021/09/07 06:38:14;;;;;;;8.88;7.35;;;;;;;17.18;70.83;101664.78;5070853;28;20452;-52
2021/09/07 06:40:41;;;;;;;8.98;7.80;;;;;;;17.18;70.81;101667.44;5072479;28;20020;-51
2021/09/07 06:43:07;;;;;;;10.05;8.00;;;;;;;17.18;70.86;101662.09;5055593;28;20036;-50
2021/09/07 06:45:33;;;;;;;9.77;8.25;;;;;;;17.17;70.86;101665.66;5071809;28;20439;-51
2021/09/07 06:47:59;;;;;;;9.32;7.85;;;;;;;17.17;70.80;101666.53;5072126;28;20158;-51
2021/09/07 06:50:24;;;;;;;8.43;7.57;;;;;;;17.18;70.81;101672.78;5071754;28;20047;-51
2021/09/07 06:52:50;;;;;;;9.38;7.75;;;;;;;17.16;70.71;101671.91;5069880;28;20462;-51
2021/09/07 06:55:16;;;;;;;9.98;8.57;;;;;;;17.17;70.79;101673.66;5056859;28;20024;-51
2021/09/07 06:57:42;;;;;;;9.95;8.18;;;;;;;17.17;70.86;101666.53;5071999;28;20083;-52
2021/09/07 07:00:08;;;;;;;8.77;7.90;;;;;;;17.18;70.71;101670.09;5071762;28;20085;-51
2021/09/07 07:02:41;;;;;;;8.90;7.85;;;;;;;17.16;70.93;101672.81;5054139;28;20214;-51
2021/09/07 07:05:08;;;;;;;10.15;7.80;;;;;;;17.16;70.74;101677.25;5071258;28;20031;-51
2021/09/07 07:07:34;;;;;;;8.73;7.82;;;;;;;17.17;70.86;101676.31;5069651;28;20017;-55
2021/09/07 07:10:00;;;;;;;9.15;7.88;;;;;;;17.16;70.96;101680.78;5070938;28;20020;-51
2021/09/07 07:12:26;;;;;;;8.48;7.60;;;;;;;17.16;70.75;101678.13;5070584;28;20523;-51
2021/09/07 07:14:52;;;;;;;10.95;8.52;;;;;;;17.17;70.80;101684.31;5071365;28;20101;-51
2021/09/07 07:17:17;;;;;;;8.52;7.45;;;;;;;17.17;70.87;101679.00;5070941;28;20158;-53
2021/09/07 07:19:43;;;;;;;9.50;7.68;;;;;;;17.17;70.81;101674.53;5056304;28;20095;-51
2021/09/07 07:22:09;;;;;;;8.63;7.70;;;;;;;17.16;70.75;101683.47;5069530;28;20505;-51
2021/09/07 07:24:35;;;;;;;8.35;7.45;;;;;;;17.16;70.78;101683.47;5050993;28;20035;-52
2021/09/07 07:27:02;;;;;;;8.77;7.55;;;;;;;17.16;70.73;101677.25;5069196;28;20012;-54
2021/09/07 07:29:29;;;;;;;9.00;8.05;;;;;;;17.16;70.83;101674.56;5071181;28;20049;-51
2021/09/07 07:31:55;;;;;;;8.98;8.07;;;;;;;17.16;70.99;101685.25;5071102;28;20039;-52
2021/09/07 07:34:21;;;;;;;7.97;7.13;;;;;;;17.15;70.81;101684.38;5069958;28;20028;-50
2021/09/07 07:36:47;;;;;;;9.23;8.02;;;;;;;17.14;70.90;101677.28;5070309;28;20070;-51
2021/09/07 07:39:13;;;;;;;9.68;7.72;;;;;;;17.16;70.98;101688.78;5069501;28;20025;-53
2021/09/07 07:41:39;;;;;;;10.75;8.77;;;;;;;17.16;70.93;101693.22;5070639;28;20117;-51
2021/09/07 07:44:04;;;;;;;10.35;9.05;;;;;;;17.15;71.03;101691.50;5070120;28;20021;-51
2021/09/07 07:46:30;;;;;;;9.80;8.70;;;;;;;17.17;71.09;101689.66;5053877;28;20032;-53
2021/09/07 07:48:56;;;;;;;9.63;8.63;;;;;;;17.16;71.12;101694.13;5054783;28;20056;-51
2021/09/07 07:51:22;;;;;;;10.35;8.57;;;;;;;17.16;70.96;101694.13;5055354;28;20076;-52
2021/09/07 07:53:48;;;;;;;9.93;8.32;;;;;;;17.17;70.99;101700.31;5053668;28;20456;-50
2021/09/07 07:56:14;;;;;;;9.40;8.45;;;;;;;17.18;71.09;101699.44;5070501;28;20081;-51
2021/09/07 07:58:39;;;;;;;9.85;8.73;;;;;;;17.17;71.00;101697.66;5069817;28;20545;-50
2021/09/07 08:01:05;;;;;;;10.27;8.80;;;;;;;17.17;71.15;101694.97;5069864;28;20028;-51
2021/09/07 08:03:31;;;;;;;10.75;8.77;;;;;;;17.17;71.01;101694.97;5055816;28;20035;-56
2021/09/07 08:05:57;;;;;;;11.38;9.55;;;;;;;17.17;70.97;101700.31;5069905;28;20024;-51
2021/09/07 08:08:22;;;;;;;10.68;9.48;;;;;;;17.17;71.21;101700.31;5067874;28;20040;-52
2021/09/07 08:10:49;;;;;;;12.48;9.43;;;;;;;17.17;71.15;101701.19;5070525;28;20033;-50
2021/09/07 08:13:14;;;;;;;10.38;9.27;;;;;;;17.17;71.17;101701.19;5068177;28;20103;-52
2021/09/07 08:15:40;;;;;;;9.68;8.43;;;;;;;17.18;71.14;101697.63;5070038;28;20104;-53
2021/09/07 08:18:06;;;;;;;9.75;8.75;;;;;;;17.17;71.01;101705.63;5070281;28;20113;-51
2021/09/07 08:20:33;;;;;;;9.27;8.27;;;;;;;17.18;71.06;101704.75;5070248;28;20493;-51
2021/09/07 08:23:00;;;;;;;11.18;9.05;;;;;;;17.19;71.11;101717.16;5068576;28;20505;-52
2021/09/07 08:25:26;;;;;;;11.98;9.93;;;;;;;17.18;71.15;101713.63;5069229;28;20031;-51
2021/09/07 08:27:52;;;;;;;11.20;9.68;;;;;;;17.18;71.17;101724.28;5052325;28;20024;-51
2021/09/07 08:30:18;;;;;;;10.90;9.75;;;;;;;17.18;71.14;101715.41;5069438;28;20390;-52
2021/09/07 08:32:44;;;;;;;11.95;8.63;;;;;;;17.18;71.14;101708.28;5069699;28;20028;-51
2021/09/07 08:35:10;;;;;;;11.45;9.75;;;;;;;17.19;71.05;101717.16;5070016;28;20024;-53
2021/09/07 08:37:38;;;;;;;15.15;10.88;;;;;;;17.21;70.99;101712.69;5067020;28;20470;-51
2021/09/07 08:40:05;;;;;;;13.85;9.90;;;;;;;17.20;71.08;101718.91;5051444;28;20040;-52
2021/09/07 08:42:32;;;;;;;13.00;10.25;;;;;;;17.20;71.16;101713.59;5055031;28;20016;-51
2021/09/07 08:44:58;;;;;;;12.07;10.20;;;;;;;17.20;71.17;101732.25;5068629;28;20032;-52
2021/09/07 08:47:24;;;;;;;13.30;10.40;;;;;;;17.20;71.17;101724.25;5052436;28;20036;-51
2021/09/07 08:49:50;;;;;;;12.70;10.85;;;;;;;17.20;71.29;101718.91;5069902;28;20100;-52
2021/09/07 08:52:18;;;;;;;14.80;10.55;;;;;;;17.20;71.20;101726.06;5069724;28;20119;-51
2021/09/07 08:54:44;;;;;;;14.27;10.65;;;;;;;17.21;71.22;101720.69;5052372;28;20017;-55
2021/09/07 08:57:09;;;;;;;13.00;11.13;;;;;;;17.21;71.09;101718.03;5069207;28;20025;-51
2021/09/07 08:59:36;;;;;;;12.70;11.20;;;;;;;17.21;71.16;101718.03;5054035;28;20147;-51
2021/09/07 09:02:15;;;;;;;15.93;11.77;;;;;;;17.22;71.08;101713.56;5069905;28;20104;-51
2021/09/07 09:04:48;;;;;;;12.38;10.20;;;;;;;17.20;71.16;101724.25;5068724;28;20032;-52
2021/09/07 09:07:20;;;;;;;13.32;11.32;;;;;;;17.21;71.05;101714.47;5069757;28;20056;-51
2021/09/07 09:09:48;;;;;;;12.25;10.65;;;;;;;17.21;70.85;101712.69;5069910;28;20024;-51
2021/09/07 09:12:14;;;;;;;12.40;9.80;;;;;;;17.22;71.01;101714.44;5068346;28;20040;-50
2021/09/07 09:14:41;;;;;;;14.07;10.40;;;;;;;17.22;71.03;101714.44;5068614;28;20027;-51
2021/09/07 09:17:24;;;;;;;12.90;10.57;;;;;;;17.24;71.01;101723.28;5069129;28;20029;-53
2021/09/07 09:19:54;;;;;;;12.80;10.32;;;;;;;17.22;71.06;101722.44;5056288;28;20390;-51
2021/09/07 09:22:22;;;;;;;13.25;10.40;;;;;;;17.25;70.92;101717.06;5069481;28;20028;-53
2021/09/07 09:24:47;;;;;;;13.30;9.45;;;;;;;17.24;70.98;101723.28;5036427;28;20035;-51
2021/09/07 09:27:14;;;;;;;13.23;10.63;;;;;;;17.25;70.93;101722.38;5069775;28;20012;-53
2021/09/07 09:29:41;;;;;;;13.23;10.00;;;;;;;17.24;70.85;101717.94;5070011;28;20449;-51
2021/09/07 09:32:12;;;;;;;10.70;8.77;;;;;;;17.25;70.86;101721.50;5068320;28;20024;-50
2021/09/07 09:34:41;;;;;;;12.63;10.30;;;;;;;17.25;71.00;101724.16;5067925;28;20020;-51
2021/09/07 09:37:12;;;;;;;12.90;10.27;;;;;;;17.26;70.82;101720.56;5054632;28;20032;-51
2021/09/07 09:39:47;;;;;;;12.05;10.73;;;;;;;17.26;70.99;101725.91;5073255;28;20489;-53
2021/09/07 09:42:14;;;;;;;13.65;11.00;;;;;;;17.26;70.93;101725.91;5073013;28;20103;-52
2021/09/07 09:44:40;;;;;;;12.02;10.00;;;;;;;17.26;70.80;101715.25;5072184;28;20048;-50
2021/09/07 09:47:06;;;;;;;11.00;8.95;;;;;;;17.26;70.63;101716.13;5073205;28;20074;-52
2021/09/07 09:49:33;;;;;;;14.88;10.13;;;;;;;17.26;70.82;101718.81;5073106;28;20055;-50
2021/09/07 09:52:08;;;;;;;11.85;10.30;;;;;;;17.28;70.83;101718.78;5065059;28;20595;-51
2021/09/07 09:54:37;;;;;;;11.50;9.65;;;;;;;17.27;70.94;101712.56;5055000;28;20020;-54
2021/09/07 09:57:04;;;;;;;12.27;10.43;;;;;;;17.28;70.79;101719.63;5071864;28;21408;-52
2021/09/07 09:59:30;;;;;;;11.23;9.60;;;;;;;17.28;70.75;101716.97;5072670;28;20024;-51
2021/09/07 10:01:57;;;;;;;10.63;9.52;;;;;;;17.29;70.82;101720.53;5070221;28;20025;-54
2021/09/07 10:04:24;;;;;;;12.45;9.77;;;;;;;17.29;70.60;101710.75;5071528;28;20040;-52
2021/09/07 10:06:51;;;;;;;13.73;10.05;;;;;;;17.29;70.73;101710.75;5072826;28;20027;-52
2021/09/07 10:09:22;;;;;;;11.43;9.73;;;;;;;17.29;70.71;101715.19;5073035;28;20383;-52
2021/09/07 10:11:51;;;;;;;14.98;10.65;;;;;;;17.31;70.66;101714.25;5056472;28;20021;-51
2021/09/07 10:14:19;;;;;;;13.32;10.80;;;;;;;17.30;70.67;101715.16;5055508;28;20397;-51
2021/09/07 10:16:53;;;;;;;12.45;10.25;;;;;;;17.33;70.52;101714.22;5070483;28;20028;-51
2021/09/07 10:19:43;;;;;;;16.33;10.65;;;;;;;17.30;70.91;101704.50;5070580;28;20028;-52
2021/09/07 10:24:54;;;;;;;13.00;10.15;;;;;;;17.34;70.54;101707.09;5070206;28;20031;-51
2021/09/07 10:27:20;;;;;;;11.65;10.13;;;;;;;17.33;70.66;101702.69;5058278;28;20029;-51
2021/09/07 10:29:46;;;;;;;12.25;9.75;;;;;;;17.34;70.56;101693.78;5073323;28;20074;-51
2021/09/07 10:32:23;;;;;;;13.30;10.40;;;;;;;17.34;70.64;101699.09;5056615;28;20021;-52
2021/09/07 10:35:09;;;;;;;12.80;10.10;;;;;;;17.33;70.57;101692.03;5071850;28;20107;-51
2021/09/07 10:38:10;;;;;;;12.27;10.75;;;;;;;17.36;70.80;101689.25;5070243;28;20048;-51
2021/09/07 10:40:46;;;;;;;13.95;9.82;;;;;;;17.36;70.57;101692.81;5049022;28;20155;-51
2021/09/07 10:43:12;;;;;;;16.15;10.77;;;;;;;17.37;70.55;101691.03;5071700;28;20029;-52
2021/09/07 10:45:39;;;;;;;12.68;10.02;;;;;;;17.37;70.46;101686.56;5071912;28;20024;-53
2021/09/07 10:48:31;;;;;;;13.32;10.52;;;;;;;17.37;70.59;101681.25;5070992;28;20513;-51
2021/09/07 10:51:03;;;;;;;14.63;12.00;;;;;;;17.39;70.42;101678.53;5072027;28;20495;-53
2021/09/07 10:53:28;;;;;;;11.57;10.13;;;;;;;17.39;70.44;101675.88;5058056;28;20028;-52
2021/09/07 10:55:54;;;;;;;11.52;10.10;;;;;;;17.40;70.42;101674.94;5071806;28;20016;-51
2021/09/07 10:58:32;;;;;;;11.48;10.10;;;;;;;17.40;70.53;101669.63;5056106;28;20020;-51
2021/09/07 11:01:24;;;;;;;11.40;9.80;;;;;;;17.42;70.49;101667.81;5053179;28;20482;-51
2021/09/07 11:04:28;;;;;;;11.30;9.25;;;;;;;17.42;70.39;101665.16;5071327;28;20446;-51
2021/09/07 11:06:53;;;;;;;13.05;10.18;;;;;;;17.42;70.45;101668.69;5070866;28;20036;-51
2021/09/07 11:09:51;;;;;;;12.60;10.45;;;;;;;17.42;70.45;101673.16;5071786;28;20017;-53
2021/09/07 11:12:33;;;;;;;11.38;10.02;;;;;;;17.43;70.23;101665.13;5069855;28;20012;-50
2021/09/07 11:15:04;;;;;;;12.30;10.70;;;;;;;17.44;70.48;101668.66;5070158;28;20017;-52
2021/09/07 11:17:29;;;;;;;;;;;;;;;17.46;70.51;101663.28;5071791;28;20467;-52
2021/09/07 11:20:07;;;;;;;11.68;9.60;;;;;;;17.43;70.59;101658.88;5055055;28;19920;-50